createdAt,value
2023-02-09T00:00:02.917Z,2.2
2023-02-09T00:05:00.784Z,5.4
2023-02-09T00:10:00.768Z,1.8
2023-02-09T00:15:00.918Z,2.9
2023-02-09T00:20:00.751Z,2.2
2023-02-09T00:25:00.812Z,1.8
2023-02-09T00:30:00.786Z,0.0
2023-02-09T00:35:00.930Z,0.0
2023-02-09T00:40:00.776Z,0.0
2023-02-09T00:45:00.767Z,0.0
2023-02-09T00:50:00.774Z,1.4
2023-02-09T00:55:01.442Z,0.0
2023-02-09T01:00:00.907Z,2.5
2023-02-09T01:05:01.210Z,2.5
2023-02-09T01:10:00.834Z,2.2
2023-02-09T01:15:00.817Z,0.0
2023-02-09T01:20:00.842Z,0.0
2023-02-09T01:25:00.759Z,0.0
2023-02-09T01:30:00.797Z,3.2
2023-02-09T01:35:00.797Z,0.0
2023-02-09T01:40:00.778Z,2.2
2023-02-09T01:45:00.780Z,0.0
2023-02-09T01:50:00.752Z,0.0
2023-02-09T01:55:00.846Z,0.0
2023-02-09T02:00:00.800Z,0.0
2023-02-09T02:05:00.813Z,0.0
2023-02-09T02:10:00.769Z,0.0
2023-02-09T02:15:00.795Z,0.0
2023-02-09T02:20:00.756Z,2.5
2023-02-09T02:25:00.792Z,0.0
2023-02-09T02:30:00.797Z,0.0
2023-02-09T02:35:00.797Z,1.8
2023-02-09T02:40:00.787Z,1.8
2023-02-09T02:45:00.747Z,1.8
2023-02-09T02:50:00.773Z,1.4
2023-02-09T02:55:00.819Z,2.5
2023-02-09T03:00:00.851Z,4.0
2023-02-09T03:05:01.115Z,3.2
2023-02-09T03:10:03.743Z,2.2
2023-02-09T03:15:00.772Z,1.8
2023-02-09T03:20:00.838Z,0.0
2023-02-09T03:25:00.765Z,5.4
2023-02-09T03:30:00.795Z,3.2
2023-02-09T03:35:00.733Z,6.1
2023-02-09T03:40:00.777Z,4.0
2023-02-09T03:45:00.798Z,8.6
2023-02-09T03:50:00.748Z,5.8
2023-02-09T03:55:00.759Z,9.4
2023-02-09T04:00:00.779Z,9.0
2023-02-09T04:05:01.224Z,7.2
2023-02-09T04:10:00.774Z,7.9
2023-02-09T04:15:00.765Z,9.0
2023-02-09T04:20:00.746Z,10.4
2023-02-09T04:25:00.812Z,12.2
2023-02-09T04:30:00.816Z,11.2
2023-02-09T04:35:00.745Z,12.6
2023-02-09T04:40:00.826Z,4.7
2023-02-09T04:45:00.713Z,10.8
2023-02-09T04:50:00.766Z,9.4
2023-02-09T04:55:00.770Z,11.5
2023-02-09T05:00:00.810Z,8.3
2023-02-09T05:05:00.763Z,7.6
2023-02-09T05:10:00.812Z,4.3
2023-02-09T05:15:00.782Z,10.4
2023-02-09T05:20:00.807Z,11.2
2023-02-09T05:25:00.818Z,8.6
2023-02-09T05:30:00.734Z,4.0
2023-02-09T05:35:00.844Z,14.4
2023-02-09T05:40:00.798Z,9.7
2023-02-09T05:45:00.816Z,9.7
2023-02-09T05:50:00.772Z,5.4
2023-02-09T05:55:00.844Z,12.2
2023-02-09T06:00:00.773Z,2.5
2023-02-09T06:05:00.783Z,6.1
2023-02-09T06:10:00.826Z,3.2
2023-02-09T06:15:00.787Z,6.8
2023-02-09T06:20:00.828Z,6.1
2023-02-09T06:25:00.824Z,10.1
2023-02-09T06:30:00.822Z,10.1
2023-02-09T06:35:00.816Z,9.7
2023-02-09T06:40:00.810Z,11.2
2023-02-09T06:45:00.915Z,7.2
2023-02-09T06:50:01.463Z,3.2
2023-02-09T06:55:00.789Z,4.0
2023-02-09T07:00:00.791Z,4.7
2023-02-09T07:05:00.787Z,5.4
2023-02-09T07:10:00.729Z,9.0
2023-02-09T07:15:00.781Z,5.4
2023-02-09T07:20:00.769Z,9.7
2023-02-09T07:25:00.915Z,8.3
2023-02-09T07:30:01.670Z,10.1
2023-02-09T07:35:00.809Z,9.4
2023-02-09T07:40:00.791Z,2.9
2023-02-09T07:45:00.750Z,6.1
2023-02-09T07:50:00.766Z,11.5
2023-02-09T07:55:00.793Z,16.9
2023-02-09T08:00:00.808Z,8.3
2023-02-09T08:05:01.009Z,9.4
2023-02-09T08:10:00.865Z,12.2
2023-02-09T08:15:00.772Z,19.4
2023-02-09T08:20:00.843Z,13.3
2023-02-09T08:25:00.856Z,11.2
2023-02-09T08:30:00.762Z,13.3
2023-02-09T08:35:00.781Z,14.8
2023-02-09T08:40:00.736Z,11.2
2023-02-09T08:45:00.817Z,5.4
2023-02-09T08:50:00.818Z,10.8
2023-02-09T08:55:00.775Z,16.9
2023-02-09T09:00:00.742Z,10.8
2023-02-09T09:05:00.805Z,8.3
2023-02-09T09:10:00.827Z,13.3
2023-02-09T09:15:00.780Z,16.2
2023-02-09T09:20:00.771Z,13.3
2023-02-09T09:25:00.775Z,14.4
2023-02-09T09:30:00.767Z,20.9
2023-02-09T09:35:00.831Z,19.8
2023-02-09T09:40:00.773Z,23.0
2023-02-09T09:45:00.774Z,18.7
2023-02-09T09:50:00.821Z,12.2
2023-02-09T09:55:00.749Z,16.6
2023-02-09T10:00:00.798Z,16.9
2023-02-09T10:05:00.789Z,6.5
2023-02-09T10:10:00.774Z,11.5
2023-02-09T10:15:00.868Z,9.4
2023-02-09T10:20:00.795Z,18.7
2023-02-09T10:25:00.778Z,24.5
2023-02-09T10:30:00.829Z,21.2
2023-02-09T10:35:00.762Z,19.4
2023-02-09T10:40:00.782Z,15.8
2023-02-09T10:45:00.797Z,22.7
2023-02-09T10:50:00.803Z,18.4
2023-02-09T10:55:00.800Z,15.1
2023-02-09T11:00:00.823Z,19.8
2023-02-09T11:05:00.797Z,10.4
2023-02-09T11:10:00.824Z,16.9
2023-02-09T11:15:00.783Z,21.2
2023-02-09T11:20:00.817Z,15.1
2023-02-09T11:25:00.755Z,9.0
2023-02-09T11:30:00.759Z,24.1
2023-02-09T11:35:00.875Z,22.3
2023-02-09T11:40:00.866Z,15.5
2023-02-09T11:45:00.800Z,21.6
2023-02-09T11:50:00.796Z,22.7
2023-02-09T11:55:00.799Z,20.9
2023-02-09T12:00:00.773Z,23.4
2023-02-09T12:05:00.806Z,16.2
2023-02-09T12:10:00.796Z,25.6
2023-02-09T12:15:00.733Z,15.1
2023-02-09T12:20:00.825Z,23.4
2023-02-09T12:25:00.755Z,13.3
2023-02-09T12:30:00.789Z,22.7
2023-02-09T12:35:00.793Z,24.8
2023-02-09T12:40:00.775Z,16.2
2023-02-09T12:45:00.813Z,13.3
2023-02-09T12:50:00.753Z,17.3
2023-02-09T12:55:00.800Z,9.7
2023-02-09T13:00:00.865Z,19.1
2023-02-09T13:05:00.871Z,14.8
2023-02-09T13:10:00.832Z,13.0
2023-02-09T13:15:00.807Z,15.1
2023-02-09T13:20:00.825Z,9.0
2023-02-09T13:25:00.825Z,17.6
2023-02-09T13:30:00.814Z,15.1
2023-02-09T13:35:00.832Z,23.4
2023-02-09T13:40:00.962Z,17.3
2023-02-09T13:45:00.801Z,14.8
2023-02-09T13:50:00.747Z,11.5
2023-02-09T13:55:00.898Z,8.3
2023-02-09T14:00:00.774Z,9.4
2023-02-09T14:05:00.911Z,7.2
2023-02-09T14:10:00.735Z,4.3
2023-02-09T14:15:00.790Z,12.2
2023-02-09T14:20:00.975Z,15.5
2023-02-09T14:25:00.808Z,10.4
2023-02-09T14:30:00.794Z,14.8
2023-02-09T14:35:00.839Z,8.6
2023-02-09T14:40:00.773Z,16.2
2023-02-09T14:45:00.792Z,12.6
2023-02-09T14:50:00.846Z,5.4
2023-02-09T14:55:00.803Z,8.6
2023-02-09T15:00:00.778Z,4.7
2023-02-09T15:05:00.793Z,10.1
2023-02-09T15:10:00.832Z,9.7
2023-02-09T15:15:00.814Z,8.3
2023-02-09T15:20:00.778Z,7.9
2023-02-09T15:25:00.834Z,7.6
2023-02-09T15:30:05.129Z,2.9
2023-02-09T15:35:00.793Z,8.3
2023-02-09T15:40:00.762Z,9.0
2023-02-09T15:45:00.770Z,5.8
2023-02-09T15:50:00.786Z,2.5
2023-02-09T15:55:00.843Z,8.3
2023-02-09T16:00:00.765Z,5.0
2023-02-09T16:05:00.767Z,8.6
2023-02-09T16:10:00.835Z,7.6
2023-02-09T16:15:00.763Z,5.4
2023-02-09T16:20:00.766Z,7.6
2023-02-09T16:25:00.775Z,1.8
2023-02-09T16:30:01.012Z,3.2
2023-02-09T16:35:17.386Z,3.2
2023-02-09T16:40:01.069Z,2.9
2023-02-09T16:45:00.808Z,5.0
2023-02-09T16:50:00.930Z,3.2
2023-02-09T16:55:00.862Z,3.2
2023-02-09T17:00:00.902Z,2.5
2023-02-09T17:05:00.790Z,4.0
2023-02-09T17:10:01.006Z,9.4
2023-02-09T17:15:00.831Z,12.6
2023-02-09T17:20:00.789Z,12.6
2023-02-09T17:25:00.909Z,12.6
2023-02-09T17:30:00.803Z,12.6
2023-02-09T17:35:00.753Z,13.0
2023-02-09T17:40:00.735Z,12.6
2023-02-09T17:45:00.950Z,15.5
2023-02-09T17:50:00.909Z,6.8
2023-02-09T17:55:00.792Z,10.8
2023-02-09T18:00:00.782Z,9.7
2023-02-09T18:05:00.804Z,12.6
2023-02-09T18:10:00.778Z,7.2
2023-02-09T18:15:00.793Z,5.8
2023-02-09T18:20:00.825Z,8.6
2023-02-09T18:25:00.399Z,10.8
2023-02-09T18:30:00.404Z,12.2
2023-02-09T18:35:00.489Z,10.4
2023-02-09T18:40:00.468Z,12.2
2023-02-09T18:45:00.508Z,10.1
2023-02-09T18:50:00.540Z,8.3
2023-02-09T18:55:00.335Z,6.1
2023-02-09T19:00:00.442Z,8.6
2023-02-09T19:05:00.366Z,5.0
2023-02-09T19:10:00.420Z,4.0
2023-02-09T19:15:00.432Z,6.5
2023-02-09T19:20:00.434Z,5.8
2023-02-09T19:25:00.337Z,9.0
2023-02-09T19:30:00.540Z,11.9
2023-02-09T19:35:00.393Z,10.4
2023-02-09T19:40:00.466Z,9.4
2023-02-09T19:45:00.325Z,7.2
2023-02-09T19:50:00.640Z,5.0
2023-02-09T19:55:00.433Z,10.1
2023-02-09T20:00:00.462Z,6.8
2023-02-09T20:05:00.506Z,6.1
2023-02-09T20:10:00.462Z,7.6
2023-02-09T20:15:00.320Z,4.3
2023-02-09T20:20:00.424Z,6.8
2023-02-09T20:25:02.326Z,2.2
2023-02-09T20:30:00.421Z,4.3
2023-02-09T20:35:00.425Z,6.8
2023-02-09T20:40:00.362Z,5.8
2023-02-09T20:45:00.359Z,9.7
2023-02-09T20:50:00.960Z,5.8
2023-02-09T20:55:00.361Z,12.6
2023-02-09T21:00:00.596Z,11.2
2023-02-09T21:05:00.390Z,4.7
2023-02-09T21:10:00.425Z,7.2
2023-02-09T21:15:00.416Z,10.4
2023-02-09T21:20:00.454Z,10.1
2023-02-09T21:25:00.378Z,7.2
2023-02-09T21:30:00.410Z,8.6
2023-02-09T21:35:00.419Z,11.5
2023-02-09T21:40:00.431Z,8.6
2023-02-09T21:45:00.415Z,9.7
2023-02-09T21:50:00.441Z,9.7
2023-02-09T21:55:00.393Z,15.1
2023-02-09T22:00:00.397Z,8.3
2023-02-09T22:05:00.376Z,11.9
2023-02-09T22:10:00.390Z,14.8
2023-02-09T22:15:00.360Z,9.4
2023-02-09T22:20:00.425Z,8.3
2023-02-09T22:25:00.388Z,8.3
2023-02-09T22:30:00.384Z,15.8
2023-02-09T22:35:00.350Z,8.6
2023-02-09T22:40:00.400Z,14.0
2023-02-09T22:45:00.370Z,8.6
2023-02-09T22:50:00.349Z,12.2
2023-02-09T22:55:00.422Z,7.2
2023-02-09T23:00:00.461Z,15.8
2023-02-09T23:05:00.401Z,6.1
2023-02-09T23:10:00.419Z,14.0
2023-02-09T23:15:00.369Z,4.7
2023-02-09T23:20:00.412Z,8.6
2023-02-09T23:25:01.981Z,11.5
2023-02-09T23:30:00.406Z,10.1
2023-02-09T23:40:00.406Z,13.0
2023-02-09T23:45:00.382Z,11.5
2023-02-09T23:50:00.415Z,11.2
2023-02-09T23:55:00.392Z,7.6
